sensor_id;sensor_type;location;lat;lon;timestamp;pressure;altitude;pressure_sealevel;temperature;humidity
72308;BME280;60257;42.638;23.376;2023-03-24T00:01:55;94691.69;;;6.04;72.93
72308;BME280;60257;42.638;23.376;2023-03-24T00:04:21;94679.13;;;5.86;72.94
72308;BME280;60257;42.638;23.376;2023-03-24T00:06:49;94697.50;;;5.71;73.85
72308;BME280;60257;42.638;23.376;2023-03-24T00:09:15;94693.22;;;5.79;73.73
72308;BME280;60257;42.638;23.376;2023-03-24T00:11:42;94697.38;;;5.85;73.41
72308;BME280;60257;42.638;23.376;2023-03-24T00:14:08;94680.75;;;5.87;73.52
72308;BME280;60257;42.638;23.376;2023-03-24T00:19:09;94675.13;;;5.83;73.45
72308;BME280;60257;42.638;23.376;2023-03-24T00:21:35;94690.03;;;5.86;73.92
72308;BME280;60257;42.638;23.376;2023-03-24T00:24:03;94690.81;;;5.86;74.10
72308;BME280;60257;42.638;23.376;2023-03-24T00:26:31;94708.72;;;5.78;73.93
72308;BME280;60257;42.638;23.376;2023-03-24T00:28:57;94710.28;;;5.62;74.10
72308;BME280;60257;42.638;23.376;2023-03-24T00:31:23;94716.22;;;5.64;73.93
72308;BME280;60257;42.638;23.376;2023-03-24T00:33:50;94716.84;;;5.70;74.28
72308;BME280;60257;42.638;23.376;2023-03-24T00:36:18;94709.81;;;5.69;73.97
72308;BME280;60257;42.638;23.376;2023-03-24T00:38:45;94696.22;;;5.69;74.31
72308;BME280;60257;42.638;23.376;2023-03-24T00:41:12;94702.44;;;5.69;74.32
72308;BME280;60257;42.638;23.376;2023-03-24T00:43:38;94709.03;;;5.77;74.14
72308;BME280;60257;42.638;23.376;2023-03-24T00:46:07;94702.75;;;5.68;74.31
72308;BME280;60257;42.638;23.376;2023-03-24T00:48:35;94691.19;;;5.54;74.41
72308;BME280;60257;42.638;23.376;2023-03-24T00:51:05;94705.41;;;5.51;75.05
72308;BME280;60257;42.638;23.376;2023-03-24T00:53:33;94704.78;;;5.54;74.82
72308;BME280;60257;42.638;23.376;2023-03-24T00:55:59;94694.69;;;5.46;74.68
72308;BME280;60257;42.638;23.376;2023-03-24T00:58:25;94691.34;;;5.49;74.42
72308;BME280;60257;42.638;23.376;2023-03-24T01:00:56;94690.22;;;5.50;74.41
72308;BME280;60257;42.638;23.376;2023-03-24T01:03:23;94682.19;;;5.45;74.54
72308;BME280;60257;42.638;23.376;2023-03-24T01:05:59;94684.88;;;5.36;74.53
72308;BME280;60257;42.638;23.376;2023-03-24T01:08:25;94689.03;;;5.33;74.57
72308;BME280;60257;42.638;23.376;2023-03-24T01:10:53;94681.81;;;5.29;74.71
72308;BME280;60257;42.638;23.376;2023-03-24T01:13:25;94686.28;;;5.25;74.69
72308;BME280;60257;42.638;23.376;2023-03-24T01:15:53;94674.88;;;5.14;75.01
72308;BME280;60257;42.638;23.376;2023-03-24T01:18:19;94692.13;;;5.10;75.39
72308;BME280;60257;42.638;23.376;2023-03-24T01:20:46;94679.00;;;5.12;75.81
72308;BME280;60257;42.638;23.376;2023-03-24T01:23:23;94690.38;;;5.14;75.54
72308;BME280;60257;42.638;23.376;2023-03-24T01:25:50;94694.88;;;5.18;75.53
72308;BME280;60257;42.638;23.376;2023-03-24T01:28:21;94676.97;;;5.17;75.15
72308;BME280;60257;42.638;23.376;2023-03-24T01:30:52;94672.66;;;5.16;75.28
72308;BME280;60257;42.638;23.376;2023-03-24T01:33:18;94680.00;;;5.16;75.50
72308;BME280;60257;42.638;23.376;2023-03-24T01:35:44;94683.81;;;5.15;75.32
72308;BME280;60257;42.638;23.376;2023-03-24T01:38:11;94682.66;;;5.07;75.57
72308;BME280;60257;42.638;23.376;2023-03-24T01:40:40;94677.72;;;5.09;75.71
72308;BME280;60257;42.638;23.376;2023-03-24T01:43:12;94676.91;;;5.09;75.65
72308;BME280;60257;42.638;23.376;2023-03-24T01:48:15;94677.84;;;5.04;75.17
72308;BME280;60257;42.638;23.376;2023-03-24T01:50:44;94675.47;;;5.02;75.37
72308;BME280;60257;42.638;23.376;2023-03-24T01:53:11;94677.63;;;4.92;75.38
72308;BME280;60257;42.638;23.376;2023-03-24T01:55:37;94683.00;;;4.83;75.88
72308;BME280;60257;42.638;23.376;2023-03-24T01:58:03;94683.44;;;4.77;75.87
72308;BME280;60257;42.638;23.376;2023-03-24T02:00:31;94686.16;;;4.77;75.54
72308;BME280;60257;42.638;23.376;2023-03-24T02:03:02;94683.16;;;4.78;76.19
72308;BME280;60257;42.638;23.376;2023-03-24T02:05:35;94679.94;;;4.76;76.44
72308;BME280;60257;42.638;23.376;2023-03-24T02:08:15;94688.38;;;4.75;76.45
72308;BME280;60257;42.638;23.376;2023-03-24T02:10:42;94679.72;;;4.73;76.40
72308;BME280;60257;42.638;23.376;2023-03-24T02:13:08;94687.41;;;4.71;76.32
72308;BME280;60257;42.638;23.376;2023-03-24T02:16:46;94697.84;;;4.77;76.12
72308;BME280;60257;42.638;23.376;2023-03-24T02:27:08;94692.09;;;4.56;76.69
72308;BME280;60257;42.638;23.376;2023-03-24T02:32:58;94696.75;;;4.42;77.44
72308;BME280;60257;42.638;23.376;2023-03-24T02:41:20;94698.31;;;4.57;77.41
72308;BME280;60257;42.638;23.376;2023-03-24T02:46:54;94677.59;;;4.61;77.17
72308;BME280;60257;42.638;23.376;2023-03-24T02:51:59;94671.84;;;4.62;77.17
72308;BME280;60257;42.638;23.376;2023-03-24T02:57:10;94657.97;;;4.64;77.24
72308;BME280;60257;42.638;23.376;2023-03-24T02:59:43;94666.66;;;4.75;77.45
72308;BME280;60257;42.638;23.376;2023-03-24T03:02:18;94663.00;;;4.79;77.03
72308;BME280;60257;42.638;23.376;2023-03-24T03:04:50;94614.13;;;4.57;76.71
72308;BME280;60257;42.638;23.376;2023-03-24T03:07:21;94627.00;;;4.74;77.09
72308;BME280;60257;42.638;23.376;2023-03-24T03:09:54;94650.41;;;4.83;76.43
72308;BME280;60257;42.638;23.376;2023-03-24T03:12:25;94655.16;;;4.78;76.74
72308;BME280;60257;42.638;23.376;2023-03-24T03:14:57;94646.81;;;4.74;76.65
72308;BME280;60257;42.638;23.376;2023-03-24T03:17:29;94646.66;;;4.71;77.13
72308;BME280;60257;42.638;23.376;2023-03-24T03:20:00;94661.34;;;4.70;76.76
72308;BME280;60257;42.638;23.376;2023-03-24T03:22:48;94647.72;;;4.61;77.05
72308;BME280;60257;42.638;23.376;2023-03-24T03:25:20;94663.75;;;4.71;77.17
72308;BME280;60257;42.638;23.376;2023-03-24T03:27:47;94661.16;;;4.66;75.80
72308;BME280;60257;42.638;23.376;2023-03-24T03:30:46;94667.28;;;4.72;75.81
72308;BME280;60257;42.638;23.376;2023-03-24T03:33:18;94659.31;;;4.75;75.40
72308;BME280;60257;42.638;23.376;2023-03-24T03:38:46;94648.63;;;4.79;75.28
72308;BME280;60257;42.638;23.376;2023-03-24T03:41:15;94640.34;;;4.84;75.00
72308;BME280;60257;42.638;23.376;2023-03-24T03:43:43;94653.91;;;4.84;74.16
72308;BME280;60257;42.638;23.376;2023-03-24T03:46:09;94647.81;;;4.78;74.65
72308;BME280;60257;42.638;23.376;2023-03-24T03:48:36;94650.00;;;4.68;74.53
72308;BME280;60257;42.638;23.376;2023-03-24T03:51:02;94662.16;;;4.70;74.99
72308;BME280;60257;42.638;23.376;2023-03-24T03:56:07;94669.00;;;4.68;75.43
72308;BME280;60257;42.638;23.376;2023-03-24T03:58:33;94660.34;;;4.65;75.11
72308;BME280;60257;42.638;23.376;2023-03-24T04:00:59;94660.19;;;4.62;75.23
72308;BME280;60257;42.638;23.376;2023-03-24T04:09:17;94668.69;;;4.47;76.11
72308;BME280;60257;42.638;23.376;2023-03-24T04:20:46;94677.31;;;4.26;76.76
72308;BME280;60257;42.638;23.376;2023-03-24T04:23:46;94677.63;;;4.25;77.07
72308;BME280;60257;42.638;23.376;2023-03-24T04:26:40;94675.53;;;4.22;77.03
72308;BME280;60257;42.638;23.376;2023-03-24T04:34:41;94676.84;;;4.24;76.84
72308;BME280;60257;42.638;23.376;2023-03-24T04:37:21;94679.66;;;4.19;76.97
72308;BME280;60257;42.638;23.376;2023-03-24T04:39:51;94687.69;;;4.24;77.06
72308;BME280;60257;42.638;23.376;2023-03-24T04:42:27;94677.13;;;4.23;77.18
72308;BME280;60257;42.638;23.376;2023-03-24T04:44:56;94691.44;;;4.15;77.55
72308;BME280;60257;42.638;23.376;2023-03-24T04:47:25;94699.28;;;4.16;77.49
72308;BME280;60257;42.638;23.376;2023-03-24T04:50:02;94689.22;;;4.17;77.75
72308;BME280;60257;42.638;23.376;2023-03-24T04:52:28;94693.22;;;4.19;77.73
72308;BME280;60257;42.638;23.376;2023-03-24T04:54:55;94692.41;;;4.19;77.60
72308;BME280;60257;42.638;23.376;2023-03-24T04:57:20;94690.19;;;4.21;77.61
72308;BME280;60257;42.638;23.376;2023-03-24T04:59:46;94700.63;;;4.28;77.49
72308;BME280;60257;42.638;23.376;2023-03-24T05:02:11;94706.56;;;4.30;77.59
72308;BME280;60257;42.638;23.376;2023-03-24T05:04:37;94714.59;;;4.35;77.07
72308;BME280;60257;42.638;23.376;2023-03-24T05:07:03;94703.94;;;4.38;76.91
72308;BME280;60257;42.638;23.376;2023-03-24T05:09:28;94699.00;;;4.40;76.76
72308;BME280;60257;42.638;23.376;2023-03-24T05:11:56;94710.97;;;4.39;76.80
72308;BME280;60257;42.638;23.376;2023-03-24T05:14:22;94706.34;;;4.40;76.80
72308;BME280;60257;42.638;23.376;2023-03-24T05:16:47;94714.56;;;4.48;76.64
72308;BME280;60257;42.638;23.376;2023-03-24T05:19:13;94721.78;;;4.53;76.79
72308;BME280;60257;42.638;23.376;2023-03-24T05:21:39;94714.00;;;4.60;76.68
72308;BME280;60257;42.638;23.376;2023-03-24T05:24:05;94712.28;;;4.64;76.68
72308;BME280;60257;42.638;23.376;2023-03-24T05:26:31;94704.81;;;4.70;76.27
72308;BME280;60257;42.638;23.376;2023-03-24T05:28:56;94714.63;;;4.79;76.22
72308;BME280;60257;42.638;23.376;2023-03-24T05:31:22;94706.97;;;4.81;76.19
72308;BME280;60257;42.638;23.376;2023-03-24T05:33:47;94713.09;;;4.87;75.83
72308;BME280;60257;42.638;23.376;2023-03-24T05:36:13;94726.22;;;4.93;75.63
72308;BME280;60257;42.638;23.376;2023-03-24T05:38:39;94714.78;;;5.05;75.35
72308;BME280;60257;42.638;23.376;2023-03-24T05:41:05;94732.91;;;5.10;75.16
72308;BME280;60257;42.638;23.376;2023-03-24T05:43:30;94722.81;;;5.10;75.48
72308;BME280;60257;42.638;23.376;2023-03-24T05:45:56;94724.47;;;5.20;75.36
72308;BME280;60257;42.638;23.376;2023-03-24T05:48:24;94724.66;;;5.23;75.39
72308;BME280;60257;42.638;23.376;2023-03-24T05:50:51;94712.38;;;5.34;75.32
72308;BME280;60257;42.638;23.376;2023-03-24T05:53:16;94709.22;;;5.41;74.77
72308;BME280;60257;42.638;23.376;2023-03-24T05:55:41;94714.88;;;5.53;74.46
72308;BME280;60257;42.638;23.376;2023-03-24T05:58:07;94713.00;;;5.62;74.17
72308;BME280;60257;42.638;23.376;2023-03-24T06:00:33;94703.53;;;5.60;74.02
72308;BME280;60257;42.638;23.376;2023-03-24T06:02:59;94718.50;;;5.79;73.78
72308;BME280;60257;42.638;23.376;2023-03-24T06:05:25;94712.78;;;5.90;73.58
72308;BME280;60257;42.638;23.376;2023-03-24T06:07:51;94716.63;;;5.97;73.55
72308;BME280;60257;42.638;23.376;2023-03-24T06:10:26;94717.47;;;6.06;73.50
72308;BME280;60257;42.638;23.376;2023-03-24T06:12:52;94718.78;;;6.17;73.05
72308;BME280;60257;42.638;23.376;2023-03-24T06:15:18;94717.81;;;6.22;73.34
72308;BME280;60257;42.638;23.376;2023-03-24T06:17:44;94709.19;;;6.37;73.00
72308;BME280;60257;42.638;23.376;2023-03-24T06:20:11;94712.88;;;6.41;73.42
72308;BME280;60257;42.638;23.376;2023-03-24T06:22:41;94712.91;;;6.50;73.02
72308;BME280;60257;42.638;23.376;2023-03-24T06:25:10;94726.66;;;6.53;72.50
72308;BME280;60257;42.638;23.376;2023-03-24T06:27:36;94711.94;;;6.54;72.84
72308;BME280;60257;42.638;23.376;2023-03-24T06:30:03;94723.00;;;6.58;73.59
72308;BME280;60257;42.638;23.376;2023-03-24T06:32:28;94718.97;;;6.55;73.92
72308;BME280;60257;42.638;23.376;2023-03-24T06:34:54;94710.16;;;6.67;73.73
72308;BME280;60257;42.638;23.376;2023-03-24T06:37:23;94717.53;;;6.84;73.76
72308;BME280;60257;42.638;23.376;2023-03-24T06:39:48;94722.66;;;6.94;73.22
72308;BME280;60257;42.638;23.376;2023-03-24T06:42:14;94728.41;;;7.10;72.66
72308;BME280;60257;42.638;23.376;2023-03-24T06:44:40;94725.19;;;7.16;72.16
72308;BME280;60257;42.638;23.376;2023-03-24T06:47:06;94728.53;;;7.22;71.78
72308;BME280;60257;42.638;23.376;2023-03-24T06:49:31;94730.44;;;7.30;71.68
72308;BME280;60257;42.638;23.376;2023-03-24T06:51:59;94722.09;;;7.35;71.83
72308;BME280;60257;42.638;23.376;2023-03-24T06:54:26;94720.63;;;7.46;71.47
72308;BME280;60257;42.638;23.376;2023-03-24T06:56:51;94718.50;;;7.52;70.67
72308;BME280;60257;42.638;23.376;2023-03-24T06:59:17;94726.53;;;7.57;70.04
72308;BME280;60257;42.638;23.376;2023-03-24T07:01:48;94716.41;;;7.57;69.96
72308;BME280;60257;42.638;23.376;2023-03-24T07:04:14;94726.63;;;7.69;69.65
72308;BME280;60257;42.638;23.376;2023-03-24T07:06:40;94736.06;;;7.80;69.30
72308;BME280;60257;42.638;23.376;2023-03-24T07:09:06;94731.53;;;7.84;69.12
72308;BME280;60257;42.638;23.376;2023-03-24T07:11:32;94732.13;;;7.98;69.10
72308;BME280;60257;42.638;23.376;2023-03-24T07:13:57;94733.13;;;7.94;68.85
72308;BME280;60257;42.638;23.376;2023-03-24T07:16:23;94740.94;;;8.04;68.81
72308;BME280;60257;42.638;23.376;2023-03-24T07:18:48;94740.56;;;8.14;68.78
72308;BME280;60257;42.638;23.376;2023-03-24T07:21:14;94733.66;;;8.17;68.24
72308;BME280;60257;42.638;23.376;2023-03-24T07:23:39;94736.34;;;8.25;68.43
72308;BME280;60257;42.638;23.376;2023-03-24T07:26:05;94741.25;;;8.40;68.30
72308;BME280;60257;42.638;23.376;2023-03-24T07:28:31;94741.53;;;8.47;68.08
72308;BME280;60257;42.638;23.376;2023-03-24T07:31:01;94739.38;;;8.53;67.32
72308;BME280;60257;42.638;23.376;2023-03-24T07:33:27;94742.75;;;8.59;67.48
72308;BME280;60257;42.638;23.376;2023-03-24T07:35:53;94733.88;;;8.62;67.21
72308;BME280;60257;42.638;23.376;2023-03-24T07:38:20;94739.75;;;8.72;67.52
72308;BME280;60257;42.638;23.376;2023-03-24T07:40:45;94745.16;;;8.81;67.06
72308;BME280;60257;42.638;23.376;2023-03-24T07:43:11;94739.25;;;8.91;67.13
72308;BME280;60257;42.638;23.376;2023-03-24T07:45:36;94729.66;;;8.85;66.44
72308;BME280;60257;42.638;23.376;2023-03-24T07:48:02;94728.94;;;8.97;66.48
72308;BME280;60257;42.638;23.376;2023-03-24T07:50:28;94733.97;;;9.07;66.08
72308;BME280;60257;42.638;23.376;2023-03-24T07:52:54;94726.03;;;9.14;66.50
72308;BME280;60257;42.638;23.376;2023-03-24T07:55:20;94725.53;;;9.33;66.11
72308;BME280;60257;42.638;23.376;2023-03-24T07:57:47;94729.66;;;9.39;65.99
72308;BME280;60257;42.638;23.376;2023-03-24T08:00:13;94719.75;;;9.46;65.36
72308;BME280;60257;42.638;23.376;2023-03-24T08:02:44;94715.22;;;9.50;64.80
72308;BME280;60257;42.638;23.376;2023-03-24T08:05:10;94703.78;;;9.48;64.31
72308;BME280;60257;42.638;23.376;2023-03-24T08:07:42;94714.41;;;9.62;64.55
72308;BME280;60257;42.638;23.376;2023-03-24T08:10:13;94721.97;;;9.65;64.06
72308;BME280;60257;42.638;23.376;2023-03-24T08:12:40;94699.50;;;9.72;63.92
72308;BME280;60257;42.638;23.376;2023-03-24T08:15:07;94702.47;;;9.79;63.57
72308;BME280;60257;42.638;23.376;2023-03-24T08:17:33;94704.31;;;9.87;63.66
72308;BME280;60257;42.638;23.376;2023-03-24T08:19:59;94700.31;;;9.96;62.99
72308;BME280;60257;42.638;23.376;2023-03-24T08:22:24;94705.69;;;10.05;62.78
72308;BME280;60257;42.638;23.376;2023-03-24T08:24:51;94709.78;;;10.11;62.33
72308;BME280;60257;42.638;23.376;2023-03-24T08:27:16;94701.25;;;10.25;61.17
72308;BME280;60257;42.638;23.376;2023-03-24T08:29:42;94702.84;;;10.38;60.92
72308;BME280;60257;42.638;23.376;2023-03-24T08:32:08;94689.13;;;10.38;61.20
72308;BME280;60257;42.638;23.376;2023-03-24T08:34:33;94699.16;;;10.58;60.41
72308;BME280;60257;42.638;23.376;2023-03-24T08:36:59;94689.91;;;10.51;60.28
72308;BME280;60257;42.638;23.376;2023-03-24T08:39:24;94688.75;;;10.64;61.24
72308;BME280;60257;42.638;23.376;2023-03-24T08:41:50;94686.75;;;10.76;60.94
72308;BME280;60257;42.638;23.376;2023-03-24T08:44:16;94689.03;;;10.87;60.82
72308;BME280;60257;42.638;23.376;2023-03-24T08:46:42;94667.88;;;10.87;60.74
72308;BME280;60257;42.638;23.376;2023-03-24T08:49:07;94671.81;;;11.02;60.27
72308;BME280;60257;42.638;23.376;2023-03-24T08:51:34;94660.34;;;11.12;60.23
72308;BME280;60257;42.638;23.376;2023-03-24T08:53:59;94664.88;;;11.20;59.89
72308;BME280;60257;42.638;23.376;2023-03-24T08:56:27;94663.47;;;11.26;59.80
72308;BME280;60257;42.638;23.376;2023-03-24T08:58:53;94653.75;;;11.29;59.69
72308;BME280;60257;42.638;23.376;2023-03-24T09:01:20;94656.91;;;11.31;59.90
72308;BME280;60257;42.638;23.376;2023-03-24T09:03:47;94658.88;;;11.46;59.74
72308;BME280;60257;42.638;23.376;2023-03-24T09:06:13;94654.47;;;11.57;59.11
72308;BME280;60257;42.638;23.376;2023-03-24T09:08:39;94640.75;;;11.57;59.05
72308;BME280;60257;42.638;23.376;2023-03-24T09:11:05;94636.22;;;11.65;58.79
72308;BME280;60257;42.638;23.376;2023-03-24T09:13:31;94640.59;;;11.81;57.99
72308;BME280;60257;42.638;23.376;2023-03-24T09:16:00;94637.22;;;11.88;58.02
72308;BME280;60257;42.638;23.376;2023-03-24T09:18:26;94628.63;;;11.89;57.93
72308;BME280;60257;42.638;23.376;2023-03-24T09:20:52;94636.59;;;11.94;57.54
72308;BME280;60257;42.638;23.376;2023-03-24T09:23:19;94625.78;;;12.02;57.37
72308;BME280;60257;42.638;23.376;2023-03-24T09:25:47;94629.22;;;12.14;56.98
72308;BME280;60257;42.638;23.376;2023-03-24T09:28:13;94627.69;;;12.17;56.89
72308;BME280;60257;42.638;23.376;2023-03-24T09:30:40;94620.16;;;12.29;56.21
72308;BME280;60257;42.638;23.376;2023-03-24T09:33:06;94619.41;;;12.32;55.63
72308;BME280;60257;42.638;23.376;2023-03-24T09:35:32;94621.53;;;12.39;56.08
72308;BME280;60257;42.638;23.376;2023-03-24T09:37:57;94618.50;;;12.44;55.62
72308;BME280;60257;42.638;23.376;2023-03-24T09:40:35;94621.06;;;12.53;54.80
72308;BME280;60257;42.638;23.376;2023-03-24T09:43:10;94617.22;;;12.57;55.05
72308;BME280;60257;42.638;23.376;2023-03-24T09:45:46;94606.41;;;12.49;53.96
72308;BME280;60257;42.638;23.376;2023-03-24T09:48:23;94608.59;;;12.59;53.83
72308;BME280;60257;42.638;23.376;2023-03-24T09:53:41;94611.44;;;12.82;52.94
72308;BME280;60257;42.638;23.376;2023-03-24T09:56:17;94600.22;;;12.90;52.39
72308;BME280;60257;42.638;23.376;2023-03-24T09:58:51;94602.38;;;13.00;51.21
72308;BME280;60257;42.638;23.376;2023-03-24T10:01:18;94590.13;;;13.17;49.93
72308;BME280;60257;42.638;23.376;2023-03-24T10:03:44;94592.16;;;13.20;49.06
72308;BME280;60257;42.638;23.376;2023-03-24T10:06:20;94588.31;;;13.25;50.18
72308;BME280;60257;42.638;23.376;2023-03-24T10:19:59;94585.72;;;13.55;49.40
72308;BME280;60257;42.638;23.376;2023-03-24T10:22:38;94582.28;;;13.61;49.36
72308;BME280;60257;42.638;23.376;2023-03-24T10:30:17;94566.09;;;13.82;48.36
72308;BME280;60257;42.638;23.376;2023-03-24T10:32:44;94559.88;;;13.89;47.18
72308;BME280;60257;42.638;23.376;2023-03-24T10:35:45;94556.31;;;13.88;47.77
72308;BME280;60257;42.638;23.376;2023-03-24T10:38:17;94562.91;;;14.07;46.48
72308;BME280;60257;42.638;23.376;2023-03-24T10:40:45;94557.78;;;14.05;46.48
72308;BME280;60257;42.638;23.376;2023-03-24T10:43:12;94553.94;;;14.13;46.34
72308;BME280;60257;42.638;23.376;2023-03-24T10:45:44;94550.16;;;14.25;46.37
72308;BME280;60257;42.638;23.376;2023-03-24T10:48:13;94555.38;;;14.30;45.00
72308;BME280;60257;42.638;23.376;2023-03-24T10:50:42;94545.22;;;14.38;45.48
72308;BME280;60257;42.638;23.376;2023-03-24T10:53:16;94548.28;;;14.59;44.95
72308;BME280;60257;42.638;23.376;2023-03-24T10:55:43;94545.16;;;14.60;44.38
72308;BME280;60257;42.638;23.376;2023-03-24T10:58:38;94545.69;;;14.70;44.58
72308;BME280;60257;42.638;23.376;2023-03-24T11:01:26;94528.25;;;14.66;43.88
72308;BME280;60257;42.638;23.376;2023-03-24T11:04:03;94541.06;;;14.81;44.24
72308;BME280;60257;42.638;23.376;2023-03-24T11:06:30;94536.09;;;14.93;43.92
72308;BME280;60257;42.638;23.376;2023-03-24T11:09:16;94528.78;;;15.12;44.11
72308;BME280;60257;42.638;23.376;2023-03-24T11:11:43;94519.25;;;15.06;43.19
72308;BME280;60257;42.638;23.376;2023-03-24T11:14:23;94487.41;;;14.78;43.35
72308;BME280;60257;42.638;23.376;2023-03-24T11:16:51;94523.09;;;14.97;43.25
72308;BME280;60257;42.638;23.376;2023-03-24T11:19:22;94514.53;;;15.06;42.86
72308;BME280;60257;42.638;23.376;2023-03-24T11:21:50;94520.88;;;15.10;42.85
72308;BME280;60257;42.638;23.376;2023-03-24T11:24:18;94515.00;;;15.15;43.33
72308;BME280;60257;42.638;23.376;2023-03-24T11:27:05;94502.13;;;15.30;42.88
72308;BME280;60257;42.638;23.376;2023-03-24T11:29:37;94498.69;;;15.40;42.21
72308;BME280;60257;42.638;23.376;2023-03-24T11:32:11;94493.16;;;15.40;41.71
72308;BME280;60257;42.638;23.376;2023-03-24T11:34:42;94481.50;;;15.61;41.24
72308;BME280;60257;42.638;23.376;2023-03-24T11:37:19;94490.66;;;15.72;40.16
72308;BME280;60257;42.638;23.376;2023-03-24T11:40:23;94486.75;;;15.76;40.81
72308;BME280;60257;42.638;23.376;2023-03-24T11:43:00;94489.28;;;15.99;40.52
72308;BME280;60257;42.638;23.376;2023-03-24T11:45:39;94487.72;;;16.05;40.05
72308;BME280;60257;42.638;23.376;2023-03-24T11:50:57;94473.53;;;16.10;39.93
72308;BME280;60257;42.638;23.376;2023-03-24T11:53:33;94470.06;;;16.24;39.31
72308;BME280;60257;42.638;23.376;2023-03-24T11:56:17;94463.75;;;16.34;39.34
72308;BME280;60257;42.638;23.376;2023-03-24T12:01:57;94452.75;;;16.45;38.00
72308;BME280;60257;42.638;23.376;2023-03-24T12:05:02;94450.41;;;16.58;38.49
72308;BME280;60257;42.638;23.376;2023-03-24T12:13:18;94443.84;;;17.12;36.72
72308;BME280;60257;42.638;23.376;2023-03-24T12:27:00;94435.56;;;17.26;35.21
72308;BME280;60257;42.638;23.376;2023-03-24T12:29:47;94426.84;;;17.17;35.19
72308;BME280;60257;42.638;23.376;2023-03-24T12:35:03;94425.66;;;17.07;35.28
72308;BME280;60257;42.638;23.376;2023-03-24T12:44:00;94399.56;;;17.65;36.48
72308;BME280;60257;42.638;23.376;2023-03-24T12:54:31;94395.81;;;18.32;32.61
72308;BME280;60257;42.638;23.376;2023-03-24T12:57:08;94382.75;;;18.22;32.60
72308;BME280;60257;42.638;23.376;2023-03-24T12:59:39;94374.75;;;18.38;32.30
72308;BME280;60257;42.638;23.376;2023-03-24T13:02:18;94371.09;;;18.59;33.15
72308;BME280;60257;42.638;23.376;2023-03-24T13:04:48;94365.09;;;18.67;32.24
72308;BME280;60257;42.638;23.376;2023-03-24T13:07:18;94369.81;;;18.74;32.07
72308;BME280;60257;42.638;23.376;2023-03-24T13:12:51;94362.34;;;18.64;31.84
72308;BME280;60257;42.638;23.376;2023-03-24T13:15:42;94366.25;;;18.77;31.09
72308;BME280;60257;42.638;23.376;2023-03-24T13:18:28;94346.09;;;18.59;31.42
72308;BME280;60257;42.638;23.376;2023-03-24T13:20:59;94361.22;;;18.47;31.49
72308;BME280;60257;42.638;23.376;2023-03-24T13:24:01;94359.69;;;18.35;31.48
72308;BME280;60257;42.638;23.376;2023-03-24T13:32:13;94355.13;;;17.86;32.24
72308;BME280;60257;42.638;23.376;2023-03-24T13:34:54;94347.63;;;17.76;31.91
72308;BME280;60257;42.638;23.376;2023-03-24T13:37:35;94342.47;;;17.60;32.07
72308;BME280;60257;42.638;23.376;2023-03-24T13:40:27;94346.44;;;17.66;32.23
72308;BME280;60257;42.638;23.376;2023-03-24T13:43:25;94337.75;;;17.72;32.27
72308;BME280;60257;42.638;23.376;2023-03-24T13:46:11;94336.13;;;17.74;32.46
72308;BME280;60257;42.638;23.376;2023-03-24T13:48:40;94335.34;;;17.81;31.95
72308;BME280;60257;42.638;23.376;2023-03-24T13:51:27;94323.81;;;17.82;31.77
72308;BME280;60257;42.638;23.376;2023-03-24T13:53:57;94328.59;;;17.78;30.88
72308;BME280;60257;42.638;23.376;2023-03-24T13:56:30;94325.81;;;17.75;30.59
72308;BME280;60257;42.638;23.376;2023-03-24T14:01:39;94319.50;;;17.71;30.83
72308;BME280;60257;42.638;23.376;2023-03-24T14:06:47;94312.34;;;17.77;31.34
72308;BME280;60257;42.638;23.376;2023-03-24T14:09:19;94308.78;;;17.87;30.52
72308;BME280;60257;42.638;23.376;2023-03-24T14:14:22;94303.63;;;17.82;31.83
72308;BME280;60257;42.638;23.376;2023-03-24T14:19:26;94289.81;;;17.64;31.79
72308;BME280;60257;42.638;23.376;2023-03-24T14:22:19;94304.06;;;17.69;31.44
72308;BME280;60257;42.638;23.376;2023-03-24T14:25:01;94306.03;;;17.69;31.50
72308;BME280;60257;42.638;23.376;2023-03-24T14:27:41;94292.53;;;17.82;31.23
72308;BME280;60257;42.638;23.376;2023-03-24T14:32:51;94301.56;;;17.96;29.80
72308;BME280;60257;42.638;23.376;2023-03-24T14:36:11;94298.34;;;18.16;29.82
72308;BME280;60257;42.638;23.376;2023-03-24T14:38:43;94292.72;;;18.26;30.24
72308;BME280;60257;42.638;23.376;2023-03-24T14:41:14;94288.34;;;18.32;29.56
72308;BME280;60257;42.638;23.376;2023-03-24T14:48:57;94289.88;;;18.40;27.17
72308;BME280;60257;42.638;23.376;2023-03-24T14:54:21;94293.06;;;18.39;26.94
72308;BME280;60257;42.638;23.376;2023-03-24T14:56:51;94272.78;;;18.45;27.04
72308;BME280;60257;42.638;23.376;2023-03-24T15:02:15;94291.00;;;18.57;26.74
72308;BME280;60257;42.638;23.376;2023-03-24T15:07:37;94285.03;;;18.52;26.93
72308;BME280;60257;42.638;23.376;2023-03-24T15:10:03;94283.03;;;18.56;27.10
72308;BME280;60257;42.638;23.376;2023-03-24T15:12:29;94284.66;;;18.57;27.04
72308;BME280;60257;42.638;23.376;2023-03-24T15:14:55;94284.28;;;18.44;27.78
72308;BME280;60257;42.638;23.376;2023-03-24T15:17:22;94282.75;;;18.36;28.49
72308;BME280;60257;42.638;23.376;2023-03-24T15:19:53;94281.63;;;18.23;29.42
72308;BME280;60257;42.638;23.376;2023-03-24T15:22:19;94282.88;;;18.15;29.37
72308;BME280;60257;42.638;23.376;2023-03-24T15:24:49;94286.88;;;18.06;29.55
72308;BME280;60257;42.638;23.376;2023-03-24T15:29:42;94285.72;;;18.04;29.37
72308;BME280;60257;42.638;23.376;2023-03-24T15:32:19;94286.16;;;17.95;29.88
72308;BME280;60257;42.638;23.376;2023-03-24T15:34:54;94282.16;;;17.96;30.11
72308;BME280;60257;42.638;23.376;2023-03-24T15:37:24;94280.19;;;17.93;30.21
72308;BME280;60257;42.638;23.376;2023-03-24T15:39:54;94283.00;;;17.86;30.15
72308;BME280;60257;42.638;23.376;2023-03-24T15:42:22;94284.66;;;17.69;30.30
72308;BME280;60257;42.638;23.376;2023-03-24T15:44:49;94276.72;;;17.68;30.29
72308;BME280;60257;42.638;23.376;2023-03-24T15:47:29;94282.66;;;17.70;30.82